sensor_id;sensor_type;location;lat;lon;timestamp;pressure;altitude;pressure_sealevel;temperature;humidity
6413;BME280;3239;48.714;9.472;2023-03-26T00:00:45;97924.22;;;8.16;100.00
6413;BME280;3239;48.714;9.472;2023-03-26T00:03:14;97935.88;;;8.17;100.00
6413;BME280;3239;48.714;9.472;2023-03-26T00:05:42;97935.88;;;8.17;100.00
6413;BME280;3239;48.714;9.472;2023-03-26T00:08:09;97931.97;;;8.12;100.00
6413;BME280;3239;48.714;9.472;2023-03-26T00:10:37;97947.34;;;8.10;100.00
6413;BME280;3239;48.714;9.472;2023-03-26T00:13:05;97949.88;;;8.08;100.00
6413;BME280;3239;48.714;9.472;2023-03-26T00:15:33;97949.63;;;8.06;100.00
6413;BME280;3239;48.714;9.472;2023-03-26T00:17:59;97955.59;;;8.04;100.00
6413;BME280;3239;48.714;9.472;2023-03-26T00:20:27;97950.22;;;7.99;100.00
6413;BME280;3239;48.714;9.472;2023-03-26T00:22:54;97953.16;;;8.01;100.00
6413;BME280;3239;48.714;9.472;2023-03-26T00:25:21;97944.50;;;7.97;100.00
6413;BME280;3239;48.714;9.472;2023-03-26T00:27:49;97944.25;;;8.00;100.00
6413;BME280;3239;48.714;9.472;2023-03-26T00:30:15;97934.41;;;7.92;100.00
6413;BME280;3239;48.714;9.472;2023-03-26T00:32:42;97943.81;;;7.91;100.00
6413;BME280;3239;48.714;9.472;2023-03-26T00:35:08;97944.09;;;7.87;100.00
6413;BME280;3239;48.714;9.472;2023-03-26T00:37:35;97939.22;;;7.80;100.00
6413;BME280;3239;48.714;9.472;2023-03-26T00:40:01;97948.94;;;7.76;100.00
6413;BME280;3239;48.714;9.472;2023-03-26T00:42:32;97952.13;;;7.80;100.00
6413;BME280;3239;48.714;9.472;2023-03-26T00:44:58;97947.41;;;7.80;100.00
6413;BME280;3239;48.714;9.472;2023-03-26T00:47:27;97954.28;;;7.87;100.00
6413;BME280;3239;48.714;9.472;2023-03-26T00:49:54;97960.00;;;7.83;100.00
6413;BME280;3239;48.714;9.472;2023-03-26T00:52:21;97953.25;;;7.90;100.00
6413;BME280;3239;48.714;9.472;2023-03-26T00:54:50;97943.66;;;7.83;100.00
6413;BME280;3239;48.714;9.472;2023-03-26T00:57:17;97939.94;;;7.81;100.00
6413;BME280;3239;48.714;9.472;2023-03-26T00:59:49;97931.78;;;7.81;100.00
6413;BME280;3239;48.714;9.472;2023-03-26T01:02:18;97932.81;;;7.78;100.00
6413;BME280;3239;48.714;9.472;2023-03-26T01:04:57;97928.16;;;7.73;100.00
6413;BME280;3239;48.714;9.472;2023-03-26T01:07:28;97916.50;;;7.72;100.00
6413;BME280;3239;48.714;9.472;2023-03-26T01:09:57;97913.38;;;7.63;100.00
6413;BME280;3239;48.714;9.472;2023-03-26T01:12:28;97915.81;;;7.66;100.00
6413;BME280;3239;48.714;9.472;2023-03-26T01:14:59;97913.59;;;7.65;100.00
6413;BME280;3239;48.714;9.472;2023-03-26T01:17:27;97906.44;;;7.62;100.00
6413;BME280;3239;48.714;9.472;2023-03-26T01:20:24;97904.22;;;7.60;100.00
6413;BME280;3239;48.714;9.472;2023-03-26T01:23:01;97897.78;;;7.58;100.00
6413;BME280;3239;48.714;9.472;2023-03-26T01:25:36;97905.06;;;7.50;100.00
6413;BME280;3239;48.714;9.472;2023-03-26T01:28:05;97905.78;;;7.50;100.00
6413;BME280;3239;48.714;9.472;2023-03-26T01:30:48;97897.91;;;7.47;100.00
6413;BME280;3239;48.714;9.472;2023-03-26T01:33:37;97890.19;;;7.51;100.00
6413;BME280;3239;48.714;9.472;2023-03-26T01:36:20;97876.84;;;7.47;100.00
6413;BME280;3239;48.714;9.472;2023-03-26T01:39:07;97876.59;;;7.45;100.00
6413;BME280;3239;48.714;9.472;2023-03-26T01:41:43;97877.16;;;7.38;100.00
6413;BME280;3239;48.714;9.472;2023-03-26T01:44:44;97877.56;;;7.48;100.00
6413;BME280;3239;48.714;9.472;2023-03-26T01:47:13;97864.28;;;7.39;100.00
6413;BME280;3239;48.714;9.472;2023-03-26T01:49:40;97867.63;;;7.26;100.00
6413;BME280;3239;48.714;9.472;2023-03-26T01:52:16;97863.59;;;7.33;100.00
6413;BME280;3239;48.714;9.472;2023-03-26T01:54:43;97856.84;;;7.39;100.00
6413;BME280;3239;48.714;9.472;2023-03-26T01:57:23;97846.72;;;7.34;100.00
6413;BME280;3239;48.714;9.472;2023-03-26T02:10:54;97816.56;;;7.27;100.00
6413;BME280;3239;48.714;9.472;2023-03-26T02:13:22;97825.53;;;7.22;100.00
6413;BME280;3239;48.714;9.472;2023-03-26T02:15:59;97816.34;;;7.25;100.00
6413;BME280;3239;48.714;9.472;2023-03-26T02:18:26;97804.50;;;7.22;100.00
6413;BME280;3239;48.714;9.472;2023-03-26T02:21:15;97800.59;;;7.18;100.00
6413;BME280;3239;48.714;9.472;2023-03-26T02:23:49;97794.84;;;7.21;100.00
6413;BME280;3239;48.714;9.472;2023-03-26T02:26:18;97795.63;;;7.16;100.00
6413;BME280;3239;48.714;9.472;2023-03-26T02:28:44;97797.69;;;7.10;100.00
6413;BME280;3239;48.714;9.472;2023-03-26T02:31:10;97797.69;;;7.10;100.00
6413;BME280;3239;48.714;9.472;2023-03-26T02:33:38;97795.69;;;7.11;100.00
6413;BME280;3239;48.714;9.472;2023-03-26T02:36:06;97785.81;;;7.08;100.00
6413;BME280;3239;48.714;9.472;2023-03-26T02:38:33;97786.03;;;7.10;100.00
6413;BME280;3239;48.714;9.472;2023-03-26T02:41:03;97780.59;;;7.10;100.00
6413;BME280;3239;48.714;9.472;2023-03-26T02:43:29;97796.72;;;7.08;100.00
6413;BME280;3239;48.714;9.472;2023-03-26T02:45:56;97795.69;;;7.11;100.00
6413;BME280;3239;48.714;9.472;2023-03-26T02:48:21;97794.41;;;7.12;100.00
6413;BME280;3239;48.714;9.472;2023-03-26T02:50:48;97790.22;;;7.11;100.00
6413;BME280;3239;48.714;9.472;2023-03-26T02:53:17;97779.63;;;7.07;100.00
6413;BME280;3239;48.714;9.472;2023-03-26T02:55:43;97777.84;;;7.10;100.00
6413;BME280;3239;48.714;9.472;2023-03-26T02:58:09;97772.41;;;7.10;100.00
6413;BME280;3239;48.714;9.472;2023-03-26T03:00:36;97766.75;;;7.08;100.00
6413;BME280;3239;48.714;9.472;2023-03-26T03:03:03;97763.06;;;7.05;100.00
6413;BME280;3239;48.714;9.472;2023-03-26T03:05:32;97767.72;;;7.10;100.00
6413;BME280;3239;48.714;9.472;2023-03-26T03:07:58;97757.81;;;7.07;100.00
6413;BME280;3239;48.714;9.472;2023-03-26T03:10:25;97754.59;;;7.09;100.00
6413;BME280;3239;48.714;9.472;2023-03-26T03:12:52;97746.88;;;7.13;100.00
6413;BME280;3239;48.714;9.472;2023-03-26T03:15:18;97736.97;;;7.15;100.00
6413;BME280;3239;48.714;9.472;2023-03-26T03:17:44;97734.94;;;7.16;100.00
6413;BME280;3239;48.714;9.472;2023-03-26T03:20:10;97725.03;;;7.18;100.00
6413;BME280;3239;48.714;9.472;2023-03-26T03:22:36;97722.09;;;7.16;100.00
6413;BME280;3239;48.714;9.472;2023-03-26T03:25:04;97706.72;;;7.19;100.00
6413;BME280;3239;48.714;9.472;2023-03-26T03:27:30;97708.38;;;7.22;100.00
6413;BME280;3239;48.714;9.472;2023-03-26T03:29:56;97705.91;;;7.24;100.00
6413;BME280;3239;48.714;9.472;2023-03-26T03:32:23;97697.44;;;7.27;100.00
6413;BME280;3239;48.714;9.472;2023-03-26T03:34:50;97699.94;;;7.25;100.00
6413;BME280;3239;48.714;9.472;2023-03-26T03:37:17;97693.81;;;7.19;100.00
6413;BME280;3239;48.714;9.472;2023-03-26T03:39:43;97680.44;;;7.21;100.00
6413;BME280;3239;48.714;9.472;2023-03-26T03:42:10;97677.16;;;7.23;100.00
6413;BME280;3239;48.714;9.472;2023-03-26T03:44:36;97680.13;;;7.25;100.00
6413;BME280;3239;48.714;9.472;2023-03-26T03:47:01;97678.63;;;7.05;100.00
6413;BME280;3239;48.714;9.472;2023-03-26T03:49:27;97693.25;;;7.02;100.00
6413;BME280;3239;48.714;9.472;2023-03-26T03:51:53;97688.72;;;7.10;100.00
6413;BME280;3239;48.714;9.472;2023-03-26T03:54:18;97688.94;;;7.12;100.00
6413;BME280;3239;48.714;9.472;2023-03-26T03:56:45;97695.13;;;7.13;100.00
6413;BME280;3239;48.714;9.472;2023-03-26T03:59:11;97696.16;;;7.10;100.00
6413;BME280;3239;48.714;9.472;2023-03-26T04:01:37;97703.69;;;6.98;100.00
6413;BME280;3239;48.714;9.472;2023-03-26T04:04:03;97711.47;;;6.89;100.00
6413;BME280;3239;48.714;9.472;2023-03-26T04:06:29;97706.69;;;6.95;100.00
6413;BME280;3239;48.714;9.472;2023-03-26T04:08:58;97707.91;;;6.99;100.00
6413;BME280;3239;48.714;9.472;2023-03-26T04:11:23;97697.94;;;7.02;100.00
6413;BME280;3239;48.714;9.472;2023-03-26T04:13:49;97687.31;;;7.04;100.00
6413;BME280;3239;48.714;9.472;2023-03-26T04:16:16;97691.91;;;6.90;100.00
6413;BME280;3239;48.714;9.472;2023-03-26T04:18:42;97690.13;;;6.69;100.00
6413;BME280;3239;48.714;9.472;2023-03-26T04:21:10;97698.97;;;6.75;100.00
6413;BME280;3239;48.714;9.472;2023-03-26T04:23:37;97706.44;;;6.69;100.00
6413;BME280;3239;48.714;9.472;2023-03-26T04:26:11;97698.72;;;6.78;100.00
6413;BME280;3239;48.714;9.472;2023-03-26T04:31:16;97685.63;;;6.71;100.00
6413;BME280;3239;48.714;9.472;2023-03-26T04:33:45;97688.97;;;6.59;100.00
6413;BME280;3239;48.714;9.472;2023-03-26T04:36:13;97679.56;;;6.60;100.00
6413;BME280;3239;48.714;9.472;2023-03-26T04:38:44;97681.56;;;6.59;100.00
6413;BME280;3239;48.714;9.472;2023-03-26T04:41:15;97689.41;;;6.68;100.00
6413;BME280;3239;48.714;9.472;2023-03-26T04:43:41;97686.44;;;6.66;100.00
6413;BME280;3239;48.714;9.472;2023-03-26T04:46:13;97681.56;;;6.59;100.00
6413;BME280;3239;48.714;9.472;2023-03-26T04:48:38;97684.50;;;6.61;100.00
6413;BME280;3239;48.714;9.472;2023-03-26T04:51:05;97679.50;;;6.65;100.00
6413;BME280;3239;48.714;9.472;2023-03-26T04:53:57;97673.78;;;6.69;100.00
6413;BME280;3239;48.714;9.472;2023-03-26T04:56:46;97653.47;;;6.70;100.00
6413;BME280;3239;48.714;9.472;2023-03-26T04:59:29;97652.28;;;6.65;100.00
6413;BME280;3239;48.714;9.472;2023-03-26T05:02:00;97651.34;;;6.87;100.00
6413;BME280;3239;48.714;9.472;2023-03-26T05:04:26;97632.91;;;6.74;100.00
6413;BME280;3239;48.714;9.472;2023-03-26T05:06:58;97624.06;;;6.68;100.00
6413;BME280;3239;48.714;9.472;2023-03-26T05:09:25;97626.72;;;6.74;100.00
6413;BME280;3239;48.714;9.472;2023-03-26T05:11:51;97626.25;;;6.70;100.00
6413;BME280;3239;48.714;9.472;2023-03-26T05:14:17;97613.22;;;6.63;100.00
6413;BME280;3239;48.714;9.472;2023-03-26T05:16:45;97633.91;;;6.71;100.00
6413;BME280;3239;48.714;9.472;2023-03-26T05:19:12;97642.19;;;6.60;100.00
6413;BME280;3239;48.714;9.472;2023-03-26T05:21:38;97642.25;;;6.55;100.00
6413;BME280;3239;48.714;9.472;2023-03-26T05:24:05;97643.38;;;6.65;100.00
6413;BME280;3239;48.714;9.472;2023-03-26T05:26:32;97642.16;;;6.66;100.00
6413;BME280;3239;48.714;9.472;2023-03-26T05:28:59;97639.16;;;6.69;100.00
6413;BME280;3239;48.714;9.472;2023-03-26T05:31:25;97641.56;;;6.49;100.00
6413;BME280;3239;48.714;9.472;2023-03-26T05:33:56;97642.25;;;6.55;100.00
6413;BME280;3239;48.714;9.472;2023-03-26T05:36:22;97641.69;;;6.62;100.00
6413;BME280;3239;48.714;9.472;2023-03-26T05:38:49;97631.31;;;6.60;100.00
6413;BME280;3239;48.714;9.472;2023-03-26T05:41:17;97630.66;;;6.78;100.00
6413;BME280;3239;48.714;9.472;2023-03-26T05:43:43;97613.72;;;6.85;100.00
6413;BME280;3239;48.714;9.472;2023-03-26T05:46:14;97607.38;;;6.77;100.00
6413;BME280;3239;48.714;9.472;2023-03-26T05:48:40;97595.94;;;6.84;100.00
6413;BME280;3239;48.714;9.472;2023-03-26T05:51:06;97574.88;;;6.85;100.00
6413;BME280;3239;48.714;9.472;2023-03-26T05:53:32;97597.06;;;6.94;100.00
6413;BME280;3239;48.714;9.472;2023-03-26T05:55:58;97595.84;;;6.90;100.00
6413;BME280;3239;48.714;9.472;2023-03-26T05:58:27;97598.06;;;6.91;100.00
6413;BME280;3239;48.714;9.472;2023-03-26T06:01:19;97595.19;;;6.84;100.00
6413;BME280;3239;48.714;9.472;2023-03-26T06:03:46;97585.25;;;6.86;100.00
6413;BME280;3239;48.714;9.472;2023-03-26T06:06:15;97583.78;;;6.85;100.00
6413;BME280;3239;48.714;9.472;2023-03-26T06:08:46;97577.44;;;6.96;100.00
6413;BME280;3239;48.714;9.472;2023-03-26T06:11:14;97574.31;;;6.92;100.00
6413;BME280;3239;48.714;9.472;2023-03-26T06:13:41;97580.41;;;6.79;100.00
6413;BME280;3239;48.714;9.472;2023-03-26T06:16:11;97582.97;;;6.90;100.00
6413;BME280;3239;48.714;9.472;2023-03-26T06:18:38;97595.34;;;6.91;100.00
6413;BME280;3239;48.714;9.472;2023-03-26T06:21:05;97574.38;;;6.86;100.00
6413;BME280;3239;48.714;9.472;2023-03-26T06:23:32;97561.91;;;6.72;100.00
6413;BME280;3239;48.714;9.472;2023-03-26T06:25:58;97558.63;;;6.79;100.00
6413;BME280;3239;48.714;9.472;2023-03-26T06:28:24;97566.41;;;6.88;100.00
6413;BME280;3239;48.714;9.472;2023-03-26T06:30:51;97567.59;;;6.93;100.00
6413;BME280;3239;48.714;9.472;2023-03-26T06:33:17;97548.25;;;6.96;100.00
6413;BME280;3239;48.714;9.472;2023-03-26T06:35:44;97536.34;;;6.99;100.00
6413;BME280;3239;48.714;9.472;2023-03-26T06:38:10;97512.91;;;7.09;100.00
6413;BME280;3239;48.714;9.472;2023-03-26T06:40:37;97506.94;;;7.11;100.00
6413;BME280;3239;48.714;9.472;2023-03-26T06:43:03;97497.91;;;7.21;100.00
6413;BME280;3239;48.714;9.472;2023-03-26T06:45:29;97501.13;;;7.20;100.00
6413;BME280;3239;48.714;9.472;2023-03-26T06:47:56;97492.88;;;7.25;100.00
6413;BME280;3239;48.714;9.472;2023-03-26T06:50:22;97486.94;;;7.08;100.00
6413;BME280;3239;48.714;9.472;2023-03-26T06:52:48;97461.84;;;7.15;100.00
6413;BME280;3239;48.714;9.472;2023-03-26T06:55:15;97454.03;;;7.38;100.00
6413;BME280;3239;48.714;9.472;2023-03-26T06:57:41;97432.22;;;7.25;100.00
6413;BME280;3239;48.714;9.472;2023-03-26T07:00:10;97441.41;;;7.22;100.00
6413;BME280;3239;48.714;9.472;2023-03-26T07:02:37;97437.03;;;7.19;100.00
6413;BME280;3239;48.714;9.472;2023-03-26T07:05:04;97429.69;;;7.27;100.00
6413;BME280;3239;48.714;9.472;2023-03-26T07:07:29;97415.78;;;7.30;100.00
6413;BME280;3239;48.714;9.472;2023-03-26T07:09:55;97395.16;;;7.48;100.00
6413;BME280;3239;48.714;9.472;2023-03-26T07:12:21;97394.66;;;7.49;100.00
6413;BME280;3239;48.714;9.472;2023-03-26T07:14:46;97380.50;;;7.51;100.00
6413;BME280;3239;48.714;9.472;2023-03-26T07:17:12;97364.28;;;7.58;100.00
6413;BME280;3239;48.714;9.472;2023-03-26T07:19:38;97346.13;;;7.48;100.00
6413;BME280;3239;48.714;9.472;2023-03-26T07:22:04;97330.63;;;7.56;100.00
6413;BME280;3239;48.714;9.472;2023-03-26T07:24:30;97310.06;;;7.81;100.00
6413;BME280;3239;48.714;9.472;2023-03-26T07:30:03;97297.59;;;7.72;100.00
6413;BME280;3239;48.714;9.472;2023-03-26T07:33:01;97281.53;;;7.82;100.00
6413;BME280;3239;48.714;9.472;2023-03-26T07:35:45;97260.25;;;7.80;100.00
6413;BME280;3239;48.714;9.472;2023-03-26T07:41:22;97246.25;;;7.97;100.00
6413;BME280;3239;48.714;9.472;2023-03-26T07:46:50;97233.88;;;7.96;100.00
6413;BME280;3239;48.714;9.472;2023-03-26T07:49:18;97227.06;;;8.02;100.00
6413;BME280;3239;48.714;9.472;2023-03-26T07:51:47;97229.13;;;8.09;100.00
6413;BME280;3239;48.714;9.472;2023-03-26T07:54:13;97217.28;;;8.07;100.00
6413;BME280;3239;48.714;9.472;2023-03-26T07:56:54;97208.91;;;8.05;100.00
6413;BME280;3239;48.714;9.472;2023-03-26T08:05:26;97212.56;;;8.07;100.00
6413;BME280;3239;48.714;9.472;2023-03-26T08:08:18;97210.94;;;7.91;100.00
6413;BME280;3239;48.714;9.472;2023-03-26T08:16:55;97227.44;;;7.73;100.00
6413;BME280;3239;48.714;9.472;2023-03-26T08:22:30;97251.69;;;7.63;100.00
6413;BME280;3239;48.714;9.472;2023-03-26T08:25:18;97269.72;;;7.53;100.00
6413;BME280;3239;48.714;9.472;2023-03-26T08:30:28;97298.53;;;7.49;100.00
6413;BME280;3239;48.714;9.472;2023-03-26T08:32:56;97312.59;;;7.53;100.00
6413;BME280;3239;48.714;9.472;2023-03-26T08:35:24;97322.75;;;7.65;100.00
6413;BME280;3239;48.714;9.472;2023-03-26T08:37:50;97332.31;;;7.72;100.00
6413;BME280;3239;48.714;9.472;2023-03-26T08:49:09;97333.13;;;7.80;100.00
6413;BME280;3239;48.714;9.472;2023-03-26T08:58:17;97349.69;;;7.69;100.00
6413;BME280;3239;48.714;9.472;2023-03-26T09:07:02;97341.81;;;7.78;100.00
6413;BME280;3239;48.714;9.472;2023-03-26T09:10:18;97351.59;;;7.87;100.00
6413;BME280;3239;48.714;9.472;2023-03-26T09:13:32;97359.88;;;8.07;100.00
6413;BME280;3239;48.714;9.472;2023-03-26T09:16:34;97357.13;;;8.20;100.00
6413;BME280;3239;48.714;9.472;2023-03-26T09:33:55;97312.59;;;8.92;100.00
6413;BME280;3239;48.714;9.472;2023-03-26T10:06:19;97085.09;;;13.60;100.00
6413;BME280;3239;48.714;9.472;2023-03-26T10:12:00;97048.47;;;12.14;100.00
6413;BME280;3239;48.714;9.472;2023-03-26T10:15:17;97072.78;;;13.00;100.00
6413;BME280;3239;48.714;9.472;2023-03-26T10:20:50;97057.50;;;12.07;100.00
6413;BME280;3239;48.714;9.472;2023-03-26T10:35:07;97075.78;;;10.86;100.00
6413;BME280;3239;48.714;9.472;2023-03-26T10:38:00;97095.19;;;10.80;100.00
6413;BME280;3239;48.714;9.472;2023-03-26T10:47:13;97047.53;;;14.53;100.00
6413;BME280;3239;48.714;9.472;2023-03-26T10:50:13;97012.75;;;14.86;100.00
6413;BME280;3239;48.714;9.472;2023-03-26T10:56:22;96987.97;;;14.12;100.00
6413;BME280;3239;48.714;9.472;2023-03-26T10:58:50;96970.34;;;14.53;100.00
6413;BME280;3239;48.714;9.472;2023-03-26T11:01:41;96965.84;;;14.20;100.00
6413;BME280;3239;48.714;9.472;2023-03-26T11:04:48;96972.53;;;13.28;100.00
6413;BME280;3239;48.714;9.472;2023-03-26T11:07:25;96988.84;;;12.48;100.00
6413;BME280;3239;48.714;9.472;2023-03-26T11:13:16;97010.56;;;12.37;100.00
6413;BME280;3239;48.714;9.472;2023-03-26T11:16:02;97000.47;;;12.90;100.00
6413;BME280;3239;48.714;9.472;2023-03-26T11:18:54;96980.00;;;13.18;100.00
6413;BME280;3239;48.714;9.472;2023-03-26T11:21:42;96977.03;;;13.95;100.00
6413;BME280;3239;48.714;9.472;2023-03-26T11:30:28;96932.06;;;14.86;100.00
6413;BME280;3239;48.714;9.472;2023-03-26T11:33:08;96942.63;;;14.23;100.00
6413;BME280;3239;48.714;9.472;2023-03-26T11:35:44;96943.19;;;13.40;100.00
6413;BME280;3239;48.714;9.472;2023-03-26T11:38:35;96935.09;;;14.90;100.00
6413;BME280;3239;48.714;9.472;2023-03-26T11:41:09;96932.34;;;14.90;100.00
6413;BME280;3239;48.714;9.472;2023-03-26T11:43:36;96931.66;;;13.87;100.00
6413;BME280;3239;48.714;9.472;2023-03-26T11:46:11;96928.88;;;14.61;100.00
6413;BME280;3239;48.714;9.472;2023-03-26T11:48:59;96925.09;;;14.85;100.00
6413;BME280;3239;48.714;9.472;2023-03-26T11:51:35;96932.88;;;14.12;100.00
6413;BME280;3239;48.714;9.472;2023-03-26T11:54:04;96931.88;;;13.72;100.00
6413;BME280;3239;48.714;9.472;2023-03-26T11:56:35;96918.38;;;14.02;100.00
6413;BME280;3239;48.714;9.472;2023-03-26T12:01:57;96945.72;;;14.00;100.00
6413;BME280;3239;48.714;9.472;2023-03-26T12:04:44;96941.66;;;13.92;100.00
6413;BME280;3239;48.714;9.472;2023-03-26T12:07:33;96916.78;;;14.18;100.00
6413;BME280;3239;48.714;9.472;2023-03-26T12:10:02;96925.66;;;14.93;100.00
6413;BME280;3239;48.714;9.472;2023-03-26T12:12:38;96906.09;;;14.70;100.00
6413;BME280;3239;48.714;9.472;2023-03-26T12:15:26;96914.31;;;14.03;100.00
6413;BME280;3239;48.714;9.472;2023-03-26T12:17:56;96905.63;;;14.16;100.00
6413;BME280;3239;48.714;9.472;2023-03-26T12:20:30;96911.78;;;15.31;100.00
6413;BME280;3239;48.714;9.472;2023-03-26T12:23:02;96909.16;;;14.55;100.00
6413;BME280;3239;48.714;9.472;2023-03-26T12:25:37;96889.66;;;13.96;100.00
6413;BME280;3239;48.714;9.472;2023-03-26T12:30:40;96897.69;;;13.65;100.00
6413;BME280;3239;48.714;9.472;2023-03-26T12:33:29;96915.84;;;13.42;100.00
6413;BME280;3239;48.714;9.472;2023-03-26T12:36:14;96923.28;;;12.96;100.00
6413;BME280;3239;48.714;9.472;2023-03-26T12:38:41;96910.78;;;13.12;100.00
6413;BME280;3239;48.714;9.472;2023-03-26T12:41:18;96909.97;;;13.55;100.00
6413;BME280;3239;48.714;9.472;2023-03-26T12:43:49;96890.16;;;14.40;100.00
6413;BME280;3239;48.714;9.472;2023-03-26T12:46:31;96894.47;;;14.05;100.00
6413;BME280;3239;48.714;9.472;2023-03-26T12:49:04;96881.56;;;14.74;100.00
6413;BME280;3239;48.714;9.472;2023-03-26T12:51:48;96865.47;;;14.61;100.00
6413;BME280;3239;48.714;9.472;2023-03-26T12:57:23;96856.66;;;14.34;100.00
6413;BME280;3239;48.714;9.472;2023-03-26T13:09:12;96854.97;;;16.52;75.77
6413;BME280;3239;48.714;9.472;2023-03-26T13:12:01;96837.59;;;17.62;65.83
6413;BME280;3239;48.714;9.472;2023-03-26T13:20:56;96824.84;;;17.46;57.23
6413;BME280;3239;48.714;9.472;2023-03-26T13:23:45;96816.66;;;17.13;52.35
6413;BME280;3239;48.714;9.472;2023-03-26T13:26:37;96815.91;;;17.82;52.93
6413;BME280;3239;48.714;9.472;2023-03-26T13:40:45;96800.34;;;17.88;53.04
6413;BME280;3239;48.714;9.472;2023-03-26T13:43:36;96797.84;;;18.54;45.39
6413;BME280;3239;48.714;9.472;2023-03-26T13:46:33;96795.22;;;17.02;45.70
6413;BME280;3239;48.714;9.472;2023-03-26T13:49:09;96787.53;;;16.45;47.08
6413;BME280;3239;48.714;9.472;2023-03-26T13:51:52;96782.00;;;16.45;47.13
6413;BME280;3239;48.714;9.472;2023-03-26T13:54:36;96786.75;;;15.59;49.73
6413;BME280;3239;48.714;9.472;2023-03-26T13:57:20;96788.38;;;15.52;51.52
6413;BME280;3239;48.714;9.472;2023-03-26T14:00:08;96777.72;;;15.79;54.01
6413;BME280;3239;48.714;9.472;2023-03-26T14:02:46;96772.22;;;15.28;51.52
6413;BME280;3239;48.714;9.472;2023-03-26T14:05:42;96777.69;;;15.47;51.21
6413;BME280;3239;48.714;9.472;2023-03-26T14:11:08;96765.97;;;16.00;51.84
6413;BME280;3239;48.714;9.472;2023-03-26T14:13:48;96766.28;;;15.52;50.61
6413;BME280;3239;48.714;9.472;2023-03-26T14:16:30;96768.97;;;16.04;50.29
6413;BME280;3239;48.714;9.472;2023-03-26T14:25:31;96762.13;;;14.81;63.10
6413;BME280;3239;48.714;9.472;2023-03-26T14:28:35;96767.31;;;14.18;70.61
6413;BME280;3239;48.714;9.472;2023-03-26T14:46:13;96772.44;;;13.19;100.00
6413;BME280;3239;48.714;9.472;2023-03-26T14:49:21;96786.16;;;13.09;100.00
6413;BME280;3239;48.714;9.472;2023-03-26T14:52:12;96783.41;;;13.00;100.00
6413;BME280;3239;48.714;9.472;2023-03-26T14:54:43;96821.91;;;12.56;100.00
6413;BME280;3239;48.714;9.472;2023-03-26T15:08:55;96939.72;;;10.34;100.00
6413;BME280;3239;48.714;9.472;2023-03-26T15:41:45;96977.34;;;10.26;100.00
6413;BME280;3239;48.714;9.472;2023-03-26T15:47:41;96982.28;;;10.27;100.00
6413;BME280;3239;48.714;9.472;2023-03-26T15:56:18;96985.94;;;10.15;100.00
6413;BME280;3239;48.714;9.472;2023-03-26T16:04:51;96994.84;;;9.70;100.00
6413;BME280;3239;48.714;9.472;2023-03-26T16:07:45;96999.56;;;9.62;100.00
6413;BME280;3239;48.714;9.472;2023-03-26T16:15:42;97031.19;;;9.20;100.00
6413;BME280;3239;48.714;9.472;2023-03-26T16:18:14;97031.53;;;9.17;100.00
6413;BME280;3239;48.714;9.472;2023-03-26T16:20:50;97033.25;;;8.92;100.00
6413;BME280;3239;48.714;9.472;2023-03-26T16:30:00;97034.22;;;9.02;100.00
6413;BME280;3239;48.714;9.472;2023-03-26T16:32:32;97046.59;;;8.95;100.00
6413;BME280;3239;48.714;9.472;2023-03-26T16:35:01;97064.84;;;9.08;100.00
6413;BME280;3239;48.714;9.472;2023-03-26T16:46:14;97072.63;;;8.96;100.00
6413;BME280;3239;48.714;9.472;2023-03-26T16:54:42;97064.38;;;8.53;100.00
6413;BME280;3239;48.714;9.472;2023-03-26T16:57:42;97079.53;;;8.34;100.00
6413;BME280;3239;48.714;9.472;2023-03-26T17:02:53;97092.69;;;8.43;100.00
6413;BME280;3239;48.714;9.472;2023-03-26T17:20:39;97131.34;;;7.93;100.00
6413;BME280;3239;48.714;9.472;2023-03-26T17:26:25;97122.47;;;7.79;100.00
6413;BME280;3239;48.714;9.472;2023-03-26T17:32:12;97126.31;;;7.84;100.00
6413;BME280;3239;48.714;9.472;2023-03-26T17:45:17;97138.22;;;7.73;100.00
6413;BME280;3239;48.714;9.472;2023-03-26T17:47:53;97120.47;;;7.80;100.00
6413;BME280;3239;48.714;9.472;2023-03-26T17:50:56;97142.63;;;7.97;100.00
6413;BME280;3239;48.714;9.472;2023-03-26T17:53:30;97132.22;;;7.75;100.00
6413;BME280;3239;48.714;9.472;2023-03-26T17:56:02;97140.16;;;7.86;100.00
6413;BME280;3239;48.714;9.472;2023-03-26T17:58:40;97138.84;;;7.79;100.00
6413;BME280;3239;48.714;9.472;2023-03-26T18:01:36;97142.03;;;7.91;100.00
6413;BME280;3239;48.714;9.472;2023-03-26T18:04:06;97143.09;;;7.88;100.00
6413;BME280;3239;48.714;9.472;2023-03-26T18:13:04;97147.28;;;7.89;100.00
6413;BME280;3239;48.714;9.472;2023-03-26T18:15:50;97146.50;;;7.68;100.00
6413;BME280;3239;48.714;9.472;2023-03-26T18:18:31;97154.59;;;7.60;100.00
6413;BME280;3239;48.714;9.472;2023-03-26T18:21:00;97151.97;;;7.68;100.00
6413;BME280;3239;48.714;9.472;2023-03-26T18:23:39;97157.25;;;7.53;100.00
6413;BME280;3239;48.714;9.472;2023-03-26T18:26:18;97149.91;;;7.61;100.00
6413;BME280;3239;48.714;9.472;2023-03-26T18:29:41;97158.59;;;7.59;100.00
6413;BME280;3239;48.714;9.472;2023-03-26T18:34:44;97159.97;;;7.53;100.00
6413;BME280;3239;48.714;9.472;2023-03-26T18:37:16;97164.38;;;7.56;100.00
6413;BME280;3239;48.714;9.472;2023-03-26T18:42:38;97163.25;;;7.38;100.00
6413;BME280;3239;48.714;9.472;2023-03-26T18:45:25;97161.25;;;7.39;100.00
6413;BME280;3239;48.714;9.472;2023-03-26T18:48:00;97171.50;;;7.46;100.00
6413;BME280;3239;48.714;9.472;2023-03-26T18:50:33;97169.22;;;7.50;100.00
6413;BME280;3239;48.714;9.472;2023-03-26T18:53:06;97163.88;;;7.44;100.00
6413;BME280;3239;48.714;9.472;2023-03-26T18:55:34;97161.56;;;7.35;100.00
6413;BME280;3239;48.714;9.472;2023-03-26T19:00:49;97170.16;;;7.39;100.00
6413;BME280;3239;48.714;9.472;2023-03-26T19:03:20;97174.75;;;7.44;100.00
6413;BME280;3239;48.714;9.472;2023-03-26T19:05:51;97171.09;;;7.42;100.00
6413;BME280;3239;48.714;9.472;2023-03-26T19:08:18;97182.03;;;7.29;100.00
6413;BME280;3239;48.714;9.472;2023-03-26T19:10:45;97172.91;;;7.26;100.00
6413;BME280;3239;48.714;9.472;2023-03-26T19:13:13;97160.38;;;7.44;100.00
6413;BME280;3239;48.714;9.472;2023-03-26T19:15:40;97165.53;;;7.47;100.00
6413;BME280;3239;48.714;9.472;2023-03-26T19:18:08;97160.09;;;7.34;100.00
6413;BME280;3239;48.714;9.472;2023-03-26T19:20:46;97162.91;;;7.55;100.00
6413;BME280;3239;48.714;9.472;2023-03-26T19:23:19;97156.19;;;7.56;100.00
6413;BME280;3239;48.714;9.472;2023-03-26T19:25:53;97157.75;;;7.64;100.00
6413;BME280;3239;48.714;9.472;2023-03-26T19:28:40;97155.13;;;7.59;100.00
6413;BME280;3239;48.714;9.472;2023-03-26T19:33:41;97140.38;;;7.54;100.00